Fall River Mills, CA (96028)

3:39 AM PDT on September 19, 2014 (GMT -0700)
Glenburn | Change Station
CLOSE
Current Station
Personal Weather Station
Location: Fall River Mills, CA
Elevation: 3347 ft
Nearby Weather Stations

Elev 3347 ft 41.08 °N, 121.54 °W | Updated 6 seconds ago

Clear
Clear
45.3 °F
Feels Like 45 °F
N
0.0
Wind Variable Wind from NE
Gusts 0.0 mph

Today
High -- | Low -- °F
--% Chance of Precip.
Yesterday
High -- | Low -- °F
Precip. -- in
6:50 AM 7:08 PM
Waning Crescent, 20% visible
Pressure 30.03 in
Visibility 10.0 miles
Clouds Clear
Windchill 45 °F
Dew Point 38 °F
Humidity 74%
Rainfall 0.00 in
Snow Depth 1 in , 0 in , 1 in
UV 0 out of 12
Pollen 4.40 out of 12
Air Quality Not available.
Flu Activity Not available.
METAR KMHS 190956Z AUTO 00000KT 10SM CLR 14/11 A3005 RMK AO2 SLP169 T01390106

More Conditions Fewer Conditions

Pressure 30.03 in
Visibility 10.0 miles
Clouds Clear
Windchill 45 °F
Dew Point 38 °F
Humidity 74%
Rainfall 0.00 in
Snow Depth 1 in , 0 in , 1 in
UV 0 out of 12
Pollen 4.40 out of 12
Air Quality Not available.
Flu Activity Not available.
METAR KMHS 190956Z AUTO 00000KT 10SM CLR 14/11 A3005 RMK AO2 SLP169 T01390106

More Conditions Fewer Conditions

10-Day Weather Forecast

Almanac

Astronomy

Sep. 19, 2014 Rise Set
Actual Time 6:50 AM PDT 7:08 PM PDT
Civil Twilight 6:23 AM PDT 7:35 PM PDT
Nautical Twilight 5:50 AM PDT 8:07 PM PDT
Astronomical Twilight 5:17 AM PDT 8:40 PM PDT
Moon 2:38 AM PDT 4:41 PM PDT
Length of Visible Light 13h 12m
Length of Day
12h 17m
Tomorrow will be 2m 43s shorter.
Waning Crescent, 20% of the Moon is Illuminated
Today
Waning Crescent
Sep 24
New
Oct 1
First Quarter
Oct 8
Full
Oct 15
Last Quarter

Today's Extremes

State Highs State Lows

Community

WunderPhotos

Upload Photos

1,754,585 photos uploaded!

Nearby

Snow Depth

Station Depth Elevation
Echo Peak 1 in 7800 ft
Squaw Valley 0 in 8200 ft
Spratt Creek 1 in 6200 ft
Fallen Leaf 0 in 6300 ft
Heavenly Valley 0 in 8850 ft

Earthquake Activity

City Distance Mag. Time & Date
Lakeview, Oregon 112 miles 3.0 10:14 AM PDT
2014-09-17
Lakeview, Oregon 112 miles 2.6 1:34 PM PDT
2014-09-16
Lakeview, Oregon 111 miles 2.5 4:10 AM PDT
2014-09-16
Minimum magnitude displayed is 2.5.

Coastal Water Temperatures

Place Temperature
No Stations Reporting

Nearby Weather Stations